Time;durP1;ratioP1;P1;durP2;ratioP2;P2;SDS_P1;SDS_P2;PMS_P1;PMS_P2;Temp;Humidity;BMP_temperature;BMP_pressure;BME280_temperature;BME280_humidity;BME280_pressure;Samples;Min_cycle;Max_cycle;Signal;HPM_P1;HPM_P2
2021/03/09 06:41:37;;;;;;;20.45;11.52;;;;;;;;;;5006540;28;20050;-91
2021/03/09 06:46:57;;;;;;;24.30;14.15;;;;;;;;;;5161840;23;20051;-91
2021/03/09 06:50:10;;;;;;;18.17;11.02;;;;;;;;;;5023980;28;20030;-90
2021/03/09 06:53:30;;;;;;;19.20;11.88;;;;;;;;;;5021943;28;20021;-92
2021/03/09 06:56:51;;;;;;;18.33;11.35;;;;;;;;;;5005809;28;20041;-91
2021/03/09 07:00:01;;;;;;;20.10;10.77;;;;;;;;;;5021288;28;20053;-90
2021/03/09 07:02:49;;;;;;;26.63;15.27;;;;;;;;;;4951141;28;20110;-87
2021/03/09 07:09:15;;;;;;;22.25;12.48;;;;;;;;;;5009692;28;20029;-92
2021/03/09 07:12:19;;;;;;;19.30;11.57;;;;;;;;;;4934843;29;20081;-91
2021/03/09 07:15:12;;;;;;;19.08;11.10;;;;;;;;;;4917454;29;20170;-91
2021/03/09 07:21:56;;;;;;;18.38;11.65;;;;;;;;;;4890321;28;20033;-90
2021/03/09 07:25:01;;;;;;;19.35;11.82;;;;;;;;;;4942834;29;20023;-90
2021/03/09 07:27:55;;;;;;;19.95;11.48;;;;;;;;;;5008569;28;20022;-89
2021/03/09 07:30:54;;;;;;;19.25;11.68;;;;;;;;;;4987127;28;20026;-85
2021/03/09 07:34:00;;;;;;;23.20;12.18;;;;;;;;;;5002530;28;20022;-88
2021/03/09 07:37:03;;;;;;;23.08;11.75;;;;;;;;;;5026714;28;20022;-89
2021/03/09 07:43:38;;;;;;;19.98;12.45;;;;;;;;;;5011596;28;20037;-87
2021/03/09 07:46:33;;;;;;;19.45;13.10;;;;;;;;;;4991207;28;20074;-87
2021/03/09 07:49:21;;;;;;;19.90;12.02;;;;;;;;;;4994436;28;20038;-88
2021/03/09 07:52:16;;;;;;;22.60;13.02;;;;;;;;;;4992804;28;20046;-84
2021/03/09 07:55:04;;;;;;;19.83;12.85;;;;;;;;;;4996459;28;20072;-86
2021/03/09 07:58:16;;;;;;;28.20;14.45;;;;;;;;;;4983589;28;20038;-86
2021/03/09 08:01:44;;;;;;;;;;;;;;;;;;;;;
2021/03/09 08:05:01;;;;;;;19.75;12.98;;;;;;;;;;4919206;29;20276;-87
2021/03/09 08:08:03;;;;;;;21.35;13.52;;;;;;;;;;4988137;28;20516;-88
2021/03/09 08:11:00;;;;;;;20.23;13.55;;;;;;;;;;4976283;28;20035;-91
2021/03/09 08:13:47;;;;;;;22.48;14.68;;;;;;;;;;5000354;28;20028;-88
2021/03/09 08:16:32;;;;;;;23.42;14.30;;;;;;;;;;4986156;28;20026;-87
2021/03/09 08:19:27;;;;;;;21.17;13.77;;;;;;;;;;5000423;28;20026;-91
2021/03/09 08:26:04;;;;;;;22.08;13.93;;;;;;;;;;4987386;28;20026;-90
2021/03/09 08:28:58;;;;;;;30.15;15.35;;;;;;;;;;5015389;28;20041;-89
2021/03/09 08:31:43;;;;;;;25.88;14.82;;;;;;;;;;5001163;28;20395;-87
2021/03/09 08:34:29;;;;;;;20.83;14.02;;;;;;;;;;4997360;28;20023;-89
2021/03/09 08:38:08;;;;;;;23.48;16.17;;;;;;;;;;4969923;28;20030;-87
2021/03/09 08:41:18;;;;;;;;;;;;;;;;;;;;;
2021/03/09 08:44:28;;;;;;;25.75;15.50;;;;;;;;;;4997583;28;20513;-88
2021/03/09 08:47:20;;;;;;;25.27;16.52;;;;;;;;;;5024129;28;20062;-85
2021/03/09 08:50:06;;;;;;;27.17;16.98;;;;;;;;;;5020708;28;20038;-88
2021/03/09 08:52:54;;;;;;;40.47;27.52;;;;;;;;;;5015316;28;20030;-88
2021/03/09 08:55:57;;;;;;;29.52;17.90;;;;;;;;;;5026931;28;20030;-87
2021/03/09 08:58:43;;;;;;;22.88;15.43;;;;;;;;;;5014031;28;20032;-86
2021/03/09 09:01:47;;;;;;;21.75;16.10;;;;;;;;;;5007615;28;20125;-87
2021/03/09 09:04:42;;;;;;;23.38;16.98;;;;;;;;;;5029839;28;20029;-89
2021/03/09 09:07:54;;;;;;;24.15;16.63;;;;;;;;;;5012534;28;20024;-87
2021/03/09 09:10:54;;;;;;;24.35;16.80;;;;;;;;;;5024265;28;20089;-89
2021/03/09 09:13:55;;;;;;;23.15;15.35;;;;;;;;;;5041247;28;20016;-88
2021/03/09 09:17:04;;;;;;;25.30;17.48;;;;;;;;;;5040715;28;20030;-89
2021/03/09 09:23:21;;;;;;;24.35;17.38;;;;;;;;;;4998318;28;20025;-86
2021/03/09 09:26:21;;;;;;;22.65;16.23;;;;;;;;;;5001397;28;20026;-90
2021/03/09 09:29:06;;;;;;;;;;;;;;;;;;5021670;28;20022;-90
2021/03/09 09:32:24;;;;;;;26.42;16.92;;;;;;;;;;4999540;28;19940;-85
2021/03/09 09:35:15;;;;;;;22.30;16.35;;;;;;;;;;5002726;28;20040;-85
2021/03/09 09:38:19;;;;;;;;;;;;;;;;;;;;;
2021/03/09 09:41:31;;;;;;;23.95;15.75;;;;;;;;;;5031165;28;20033;-89
2021/03/09 09:44:37;;;;;;;23.83;16.05;;;;;;;;;;5007405;28;20029;-91
2021/03/09 09:47:26;;;;;;;22.25;15.90;;;;;;;;;;5013422;28;20045;-87
2021/03/09 09:50:15;;;;;;;22.65;16.55;;;;;;;;;;5013422;28;20030;-90
2021/03/09 09:53:13;;;;;;;;;;;;;;;;;;;;;
2021/03/09 09:56:04;;;;;;;23.73;16.70;;;;;;;;;;5014151;28;20033;-87
2021/03/09 09:58:49;;;;;;;;;;;;;;;;;;5015712;28;20029;-91
2021/03/09 10:01:47;;;;;;;24.23;15.82;;;;;;;;;;5016751;28;19940;-90
2021/03/09 10:04:52;;;;;;;23.15;15.98;;;;;;;;;;5023704;28;20025;-93
2021/03/09 10:07:41;;;;;;;19.65;15.27;;;;;;;;;;5011119;28;20087;-86
2021/03/09 10:10:29;;;;;;;51.33;35.65;;;;;;;;;;5011861;28;20104;-91
2021/03/09 10:13:31;;;;;;;38.92;29.02;;;;;;;;;;5033882;28;20084;-91
2021/03/09 10:30:13;;;;;;;33.25;17.00;;;;;;;;;;5012361;28;20113;-91
2021/03/09 10:32:58;;;;;;;26.95;15.57;;;;;;;;;;5024163;28;20065;-90
2021/03/09 10:36:13;;;;;;;;;;;;;;;;;;;;;
2021/03/09 10:39:29;;;;;;;15.50;12.38;;;;;;;;;;5011256;28;20029;-89
2021/03/09 10:42:33;;;;;;;16.27;11.73;;;;;;;;;;4988855;28;20034;-92
2021/03/09 10:49:12;;;;;;;16.83;12.73;;;;;;;;;;5010852;28;20111;-92
2021/03/09 11:05:52;;;;;;;13.93;9.68;;;;;;;;;;4924791;28;20039;-92
2021/03/09 11:08:48;;;;;;;;;;;;;;;;;;;;;
2021/03/09 11:11:49;;;;;;;14.52;9.43;;;;;;;;;;4996587;28;20133;-91
2021/03/09 11:22:37;;;;;;;;;;;;;;;;;;;;;
2021/03/09 11:29:21;;;;;;;;;;;;;;;;;;;;;
2021/03/09 11:47:02;;;;;;;14.05;10.52;;;;;;;;;;5463597;23;20475;-83
2021/03/09 11:49:47;;;;;;;15.07;10.27;;;;;;;;;;5004431;28;20095;-83
2021/03/09 11:52:32;;;;;;;13.63;10.02;;;;;;;;;;5003916;28;20022;-83
2021/03/09 11:55:18;;;;;;;17.40;10.05;;;;;;;;;;5006090;28;20026;-84
2021/03/09 11:58:03;;;;;;;14.00;9.68;;;;;;;;;;5018769;28;20026;-83
2021/03/09 12:00:48;;;;;;;17.70;10.70;;;;;;;;;;5003482;28;20052;-85
2021/03/09 12:03:33;;;;;;;15.35;10.70;;;;;;;;;;5004626;28;20500;-84
2021/03/09 12:06:21;;;;;;;15.95;11.00;;;;;;;;;;5002419;28;20061;-84
2021/03/09 12:09:06;;;;;;;14.02;9.50;;;;;;;;;;5001964;28;20026;-84
2021/03/09 12:11:52;;;;;;;14.15;9.98;;;;;;;;;;4996794;28;20034;-84
2021/03/09 12:14:37;;;;;;;15.85;10.07;;;;;;;;;;5006109;28;20057;-82
2021/03/09 12:17:25;;;;;;;16.52;10.35;;;;;;;;;;5025491;28;20022;-94
2021/03/09 12:20:11;;;;;;;16.55;10.98;;;;;;;;;;5009093;28;20041;-91
2021/03/09 12:22:59;;;;;;;17.38;10.57;;;;;;;;;;5013156;28;20042;-92
2021/03/09 12:25:45;;;;;;;15.55;11.38;;;;;;;;;;5015600;28;20498;-91
2021/03/09 12:28:30;;;;;;;17.35;10.75;;;;;;;;;;5025310;28;20026;-90
2021/03/09 12:31:16;;;;;;;16.33;10.35;;;;;;;;;;5017417;28;20021;-91
2021/03/09 12:34:01;;;;;;;19.75;10.45;;;;;;;;;;5012991;28;20030;-89
2021/03/09 12:36:46;;;;;;;15.95;10.38;;;;;;;;;;5014331;28;20092;-92
2021/03/09 12:49:18;;;;;;;13.32;9.63;;;;;;;;;;4953176;29;20051;-90
2021/03/09 12:55:47;;;;;;;17.10;10.75;;;;;;;;;;4983191;28;20022;-89
2021/03/09 12:58:54;;;;;;;15.02;10.52;;;;;;;;;;4973368;28;20042;-89
2021/03/09 13:02:02;;;;;;;;;;;;;;;;;;;;;
2021/03/09 13:08:48;;;;;;;13.32;9.50;;;;;;;;;;4902030;28;20036;-87
2021/03/09 13:15:11;;;;;;;16.30;9.90;;;;;;;;;;4944796;28;20170;-88
2021/03/09 13:25:15;;;;;;;17.27;10.40;;;;;;;;;;4968051;28;20018;-91
2021/03/09 13:32:12;;;;;;;16.25;10.50;;;;;;;;;;4877683;29;20037;-92
2021/03/09 13:35:12;;;;;;;;;;;;;;;;;;4816155;29;20047;-92
2021/03/09 13:38:05;;;;;;;17.23;10.07;;;;;;;;;;4828362;29;19912;-88
2021/03/09 13:41:03;;;;;;;16.37;11.43;;;;;;;;;;4828336;29;20042;-90
2021/03/09 13:44:03;;;;;;;18.55;10.73;;;;;;;;;;4867324;29;20776;-90
2021/03/09 13:54:25;;;;;;;20.90;11.40;;;;;;;;;;4856407;29;20029;-91
2021/03/09 14:01:18;;;;;;;16.10;11.10;;;;;;;;;;4992261;28;20615;-91
2021/03/09 14:04:07;;;;;;;14.63;9.68;;;;;;;;;;4980194;28;20022;-88
2021/03/09 14:07:03;;;;;;;18.10;11.13;;;;;;;;;;5003556;28;20112;-91
2021/03/09 14:09:54;;;;;;;17.77;10.43;;;;;;;;;;4994660;28;20030;-91
2021/03/09 14:12:40;;;;;;;15.23;11.00;;;;;;;;;;5013732;28;20030;-91
2021/03/09 14:15:25;;;;;;;15.35;10.25;;;;;;;;;;4998968;28;20029;-88
2021/03/09 14:18:11;;;;;;;23.77;12.50;;;;;;;;;;5004057;28;20022;-91
2021/03/09 14:21:08;;;;;;;20.35;10.40;;;;;;;;;;5000964;28;20069;-93
2021/03/09 14:23:59;;;;;;;20.85;13.25;;;;;;;;;;5013361;28;20076;-90
2021/03/09 14:27:15;;;;;;;18.65;11.80;;;;;;;;;;5000910;28;20121;-91
2021/03/09 14:37:07;;;;;;;15.10;11.10;;;;;;;;;;4998310;28;20065;-85
2021/03/09 14:40:03;;;;;;;17.50;11.57;;;;;;;;;;5009888;28;20040;-87
2021/03/09 14:43:06;;;;;;;19.00;11.90;;;;;;;;;;5025159;28;20045;-87
2021/03/09 14:45:51;;;;;;;19.98;11.88;;;;;;;;;;5017925;28;20026;-89
2021/03/09 14:48:42;;;;;;;19.90;11.93;;;;;;;;;;5048833;28;20036;-87
2021/03/09 14:51:41;;;;;;;17.90;11.50;;;;;;;;;;5031877;28;20504;-87
2021/03/09 14:54:32;;;;;;;19.02;11.75;;;;;;;;;;5027902;28;20391;-86
2021/03/09 14:57:31;;;;;;;17.55;11.75;;;;;;;;;;5025861;28;20064;-86
2021/03/09 15:00:21;;;;;;;21.92;13.43;;;;;;;;;;5047869;28;20021;-87
2021/03/09 15:03:18;;;;;;;14.77;10.73;;;;;;;;;;5027074;28;20045;-90
2021/03/09 15:06:08;;;;;;;17.20;11.57;;;;;;;;;;5021271;28;20120;-89
2021/03/09 15:08:57;;;;;;;16.63;11.15;;;;;;;;;;5043508;28;20067;-89
2021/03/09 15:11:42;;;;;;;17.35;11.57;;;;;;;;;;5028381;28;20022;-88
2021/03/09 15:14:30;;;;;;;26.50;18.30;;;;;;;;;;5042727;28;20036;-88
2021/03/09 15:17:21;;;;;;;16.50;10.65;;;;;;;;;;5031782;28;20437;-88
2021/03/09 15:20:28;;;;;;;;;;;;;;;;;;;;;
2021/03/09 15:23:22;;;;;;;17.05;9.77;;;;;;;;;;5049722;28;20049;-89
2021/03/09 15:26:17;;;;;;;49.28;16.60;;;;;;;;;;5031523;28;20480;-89
2021/03/09 15:29:30;;;;;;;16.23;10.63;;;;;;;;;;5033382;28;20093;-90
2021/03/09 15:32:20;;;;;;;18.15;10.45;;;;;;;;;;5045547;28;20515;-85
2021/03/09 15:35:12;;;;;;;21.67;11.45;;;;;;;;;;5008636;28;20037;-85
2021/03/09 15:38:10;;;;;;;24.17;13.05;;;;;;;;;;5034629;28;20037;-87
2021/03/09 15:40:56;;;;;;;13.77;9.02;;;;;;;;;;5006162;28;20499;-87
2021/03/09 15:43:54;;;;;;;;;;;;;;;;;;;;;
2021/03/09 15:46:50;;;;;;;;;;;;;;;;;;4992169;28;20037;-86
2021/03/09 15:49:43;;;;;;;14.48;9.35;;;;;;;;;;4980823;28;19909;-88
2021/03/09 15:52:38;;;;;;;;;;;;;;;;;;4996223;28;20112;-87
2021/03/09 15:55:40;;;;;;;14.82;9.95;;;;;;;;;;5009596;28;19996;-86
2021/03/09 15:58:38;;;;;;;;;;;;;;;;;;;;;
2021/03/09 16:04:58;;;;;;;;;;;;;;;;;;;;;
2021/03/09 16:14:31;;;;;;;18.83;12.23;;;;;;;;;;4899429;29;20024;-91
2021/03/09 16:17:30;;;;;;;;;;;;;;;;;;;;;
2021/03/09 16:28:02;;;;;;;;;;;;;;;;;;;;;
2021/03/09 16:39:03;;;;;;;;;;;;;;;;;;;;;
2021/03/09 16:50:36;;;;;;;42.83;29.87;;;;;;;;;;5433942;23;20088;-90
2021/03/09 16:56:50;;;;;;;18.45;12.05;;;;;;;;;;5025249;28;20036;-88
2021/03/09 16:59:36;;;;;;;15.82;11.40;;;;;;;;;;5015718;28;20786;-91
2021/03/09 17:02:21;;;;;;;17.73;11.20;;;;;;;;;;5010094;28;20110;-89
2021/03/09 17:05:07;;;;;;;16.98;11.77;;;;;;;;;;5010004;28;20524;-88
2021/03/09 17:07:55;;;;;;;20.20;11.57;;;;;;;;;;5016478;28;20033;-89
2021/03/09 17:10:40;;;;;;;18.33;12.40;;;;;;;;;;5016236;28;20045;-90
2021/03/09 17:13:25;;;;;;;15.23;12.57;;;;;;;;;;5012174;28;20527;-89
2021/03/09 17:16:11;;;;;;;17.85;11.43;;;;;;;;;;5011016;28;20030;-88
2021/03/09 17:18:59;;;;;;;17.83;11.43;;;;;;;;;;5012121;28;20088;-88
2021/03/09 17:22:17;;;;;;;;;;;;;;;;;;;;;
2021/03/09 17:32:44;;;;;;;16.73;12.85;;;;;;;;;;4887190;29;20075;-91
2021/03/09 17:35:29;;;;;;;22.30;13.07;;;;;;;;;;4915422;29;20023;-81
2021/03/09 17:38:14;;;;;;;23.33;13.68;;;;;;;;;;4920510;29;20103;-82
2021/03/09 17:41:00;;;;;;;19.08;12.82;;;;;;;;;;4986828;28;20037;-82
2021/03/09 17:43:45;;;;;;;22.73;13.98;;;;;;;;;;5002944;28;20037;-82
2021/03/09 17:46:30;;;;;;;19.08;13.93;;;;;;;;;;5026061;28;20030;-91
2021/03/09 17:49:19;;;;;;;20.33;13.27;;;;;;;;;;5013632;28;20078;-91
2021/03/09 17:52:06;;;;;;;22.02;12.68;;;;;;;;;;5027165;28;20113;-92
2021/03/09 17:54:51;;;;;;;15.65;12.07;;;;;;;;;;5017224;28;20034;-86
2021/03/09 17:57:36;;;;;;;18.45;14.15;;;;;;;;;;5033221;28;20030;-92
2021/03/09 18:00:22;;;;;;;33.42;23.00;;;;;;;;;;5007528;28;20030;-91
2021/03/09 18:03:13;;;;;;;36.22;23.13;;;;;;;;;;5010647;28;20089;-93
2021/03/09 18:05:59;;;;;;;21.10;15.32;;;;;;;;;;5019529;28;20045;-91
2021/03/09 18:28:15;;;;;;;19.98;12.88;;;;;;;;;;4960401;28;20038;-88
2021/03/09 18:31:01;;;;;;;18.00;11.60;;;;;;;;;;4952159;28;20509;-88
2021/03/09 18:33:46;;;;;;;17.52;12.05;;;;;;;;;;4954247;28;20033;-88
2021/03/09 18:36:31;;;;;;;18.90;12.30;;;;;;;;;;4959397;28;20654;-85
2021/03/09 18:39:17;;;;;;;20.85;12.93;;;;;;;;;;4954746;28;20073;-90
2021/03/09 18:42:02;;;;;;;17.73;11.82;;;;;;;;;;4973568;28;20034;-89
2021/03/09 18:44:48;;;;;;;20.33;11.65;;;;;;;;;;4972926;28;20031;-89
2021/03/09 18:47:33;;;;;;;17.35;12.00;;;;;;;;;;4970895;28;20025;-87
2021/03/09 18:50:27;;;;;;;24.38;16.98;;;;;;;;;;4987782;28;20031;-91
2021/03/09 18:53:15;;;;;;;24.70;13.32;;;;;;;;;;4971084;28;20069;-91
2021/03/09 18:56:01;;;;;;;21.02;12.02;;;;;;;;;;4965589;28;20030;-93
2021/03/09 18:58:47;;;;;;;23.45;11.60;;;;;;;;;;4973078;28;20366;-88
2021/03/09 19:01:32;;;;;;;17.80;11.98;;;;;;;;;;4975483;28;20054;-88
2021/03/09 19:04:17;;;;;;;17.55;11.35;;;;;;;;;;4959179;28;20018;-87
2021/03/09 19:07:03;;;;;;;15.90;12.48;;;;;;;;;;4950359;28;20026;-86
2021/03/09 19:09:48;;;;;;;16.88;12.07;;;;;;;;;;4969943;28;20553;-88
2021/03/09 19:12:34;;;;;;;16.23;10.98;;;;;;;;;;4964904;28;20026;-88
2021/03/09 19:15:19;;;;;;;15.52;10.73;;;;;;;;;;4963057;28;20085;-89
2021/03/09 19:18:05;;;;;;;26.75;11.73;;;;;;;;;;4965292;28;20360;-90
2021/03/09 19:20:50;;;;;;;16.00;9.60;;;;;;;;;;4959842;28;20041;-90
2021/03/09 19:23:36;;;;;;;14.52;9.95;;;;;;;;;;4985447;28;20402;-87
2021/03/09 19:26:21;;;;;;;13.35;8.45;;;;;;;;;;4991306;28;20032;-87
2021/03/09 19:29:13;;;;;;;18.38;9.02;;;;;;;;;;5003152;28;20375;-88
2021/03/09 19:31:58;;;;;;;16.50;9.38;;;;;;;;;;5004269;28;20045;-91
2021/03/09 19:34:44;;;;;;;17.13;8.80;;;;;;;;;;5008347;28;20014;-88
2021/03/09 19:37:29;;;;;;;14.18;9.52;;;;;;;;;;4995929;28;20061;-91
2021/03/09 19:40:15;;;;;;;13.98;8.73;;;;;;;;;;4996532;28;20024;-90
2021/03/09 19:43:37;;;;;;;18.08;10.07;;;;;;;;;;5007893;28;20019;-90
2021/03/09 19:46:31;;;;;;;15.57;10.10;;;;;;;;;;5003204;28;20038;-90
2021/03/09 19:49:25;;;;;;;15.45;9.93;;;;;;;;;;5022981;28;20014;-95
2021/03/09 19:59:59;;;;;;;17.35;10.18;;;;;;;;;;5144375;23;20058;-92
2021/03/09 20:03:03;;;;;;;19.88;11.18;;;;;;;;;;5007988;28;20030;-90
2021/03/09 20:09:24;;;;;;;17.27;10.73;;;;;;;;;;4984301;28;20105;-93
2021/03/09 20:12:36;;;;;;;18.55;10.75;;;;;;;;;;4972669;28;20038;-85
2021/03/09 20:15:21;;;;;;;17.40;10.82;;;;;;;;;;4963674;28;20031;-88
2021/03/09 20:18:07;;;;;;;16.65;10.88;;;;;;;;;;4975878;28;20061;-85
2021/03/09 20:20:59;;;;;;;17.08;11.80;;;;;;;;;;5011343;28;20033;-91
2021/03/09 20:23:44;;;;;;;17.48;11.40;;;;;;;;;;5021282;28;20022;-89
2021/03/09 20:26:31;;;;;;;19.00;10.80;;;;;;;;;;5009241;28;20026;-90
2021/03/09 20:29:16;;;;;;;15.68;10.52;;;;;;;;;;5004347;28;20022;-90
2021/03/09 20:32:30;;;;;;;18.83;11.77;;;;;;;;;;5007606;28;20022;-92
2021/03/09 21:10:25;;;;;;;19.07;13.43;;;;;;;;;;957580;23;22401;-84
2021/03/09 21:13:11;;;;;;;16.98;12.55;;;;;;;;;;5044266;28;20488;-90
2021/03/09 21:15:57;;;;;;;20.38;13.23;;;;;;;;;;5030369;28;20038;-90
2021/03/09 21:32:20;;;;;;;17.90;13.75;;;;;;;;;;4984485;28;20026;-90
2021/03/09 21:35:18;;;;;;;24.95;15.38;;;;;;;;;;4969290;28;20182;-91
2021/03/09 21:38:14;;;;;;;24.42;15.63;;;;;;;;;;5012799;28;20030;-87
2021/03/09 21:41:02;;;;;;;22.25;14.82;;;;;;;;;;5002440;28;20040;-88
2021/03/09 21:43:58;;;;;;;22.00;15.15;;;;;;;;;;5016081;28;20030;-90
2021/03/09 21:46:44;;;;;;;31.80;21.90;;;;;;;;;;5014247;28;20171;-90
2021/03/09 21:49:43;;;;;;;28.30;20.08;;;;;;;;;;5026918;28;20030;-89
2021/03/09 21:56:16;;;;;;;20.60;14.23;;;;;;;;;;4995337;28;20091;-90
2021/03/09 22:02:47;;;;;;;19.38;14.98;;;;;;;;;;5019734;28;20021;-89
2021/03/09 22:05:33;;;;;;;22.33;15.43;;;;;;;;;;5005819;28;20120;-90
2021/03/09 22:08:33;;;;;;;19.70;14.35;;;;;;;;;;5007620;28;20026;-89
2021/03/09 22:11:34;;;;;;;26.45;15.27;;;;;;;;;;5026254;28;20053;-86
2021/03/09 22:14:30;;;;;;;20.55;15.00;;;;;;;;;;5004167;28;20060;-91
2021/03/09 22:17:31;;;;;;;21.70;15.18;;;;;;;;;;5023017;28;20049;-90
2021/03/09 22:20:32;;;;;;;;;;;;;;;;;;;;;
2021/03/09 22:23:27;;;;;;;24.25;15.77;;;;;;;;;;5010488;28;20442;-91
2021/03/09 22:26:35;;;;;;;22.85;16.25;;;;;;;;;;5010073;28;20138;-92
2021/03/09 22:30:00;;;;;;;;;;;;;;;;;;;;;
2021/03/09 22:33:38;;;;;;;;;;;;;;;;;;;;;
2021/03/09 22:37:00;;;;;;;;;;;;;;;;;;;;;
2021/03/09 22:46:44;;;;;;;22.30;16.13;;;;;;;;;;4768589;29;20035;-93
2021/03/09 22:50:15;;;;;;;23.48;16.33;;;;;;;;;;4743492;29;20043;-92
2021/03/09 23:04:04;;;;;;;24.23;16.65;;;;;;;;;;4943253;28;20031;-92
2021/03/09 23:14:30;;;;;;;26.17;16.40;;;;;;;;;;4857666;29;20446;-91
2021/03/09 23:27:41;;;;;;;24.33;16.83;;;;;;;;;;4985955;28;20531;-90
2021/03/09 23:30:34;;;;;;;25.20;16.83;;;;;;;;;;5027352;28;20045;-91
2021/03/09 23:33:29;;;;;;;24.17;17.70;;;;;;;;;;5010561;28;20030;-91
2021/03/09 23:36:14;;;;;;;26.65;17.13;;;;;;;;;;5034246;28;20037;-90
2021/03/09 23:39:00;;;;;;;26.95;17.48;;;;;;;;;;5037861;28;20024;-91
2021/03/09 23:41:54;;;;;;;23.58;16.42;;;;;;;;;;5030320;28;20037;-91
2021/03/09 23:44:42;;;;;;;26.10;17.70;;;;;;;;;;5014694;28;20057;-91
2021/03/09 23:47:43;;;;;;;;;;;;;;;;;;;;;
2021/03/09 23:50:38;;;;;;;25.52;18.30;;;;;;;;;;5010555;28;20093;-91
2021/03/09 23:53:31;;;;;;;24.88;16.55;;;;;;;;;;5017564;28;20056;-89
2021/03/09 23:56:25;;;;;;;25.10;16.02;;;;;;;;;;5017343;28;20041;-91
2021/03/09 23:59:49;;;;;;;;;;;;;;;;;;;;;
